createdAt,value
2023-01-28T00:00:55.440Z,-3.32
2023-01-28T00:03:22.824Z,-3.32
2023-01-28T00:05:50.174Z,-3.33
2023-01-28T00:08:17.340Z,-3.33
2023-01-28T00:10:44.809Z,-3.37
2023-01-28T00:13:13.667Z,-3.44
2023-01-28T00:15:41.080Z,-3.43
2023-01-28T00:18:08.295Z,-3.55
2023-01-28T00:20:35.445Z,-3.47
2023-01-28T00:23:02.986Z,-3.50
2023-01-28T00:25:31.580Z,-3.51
2023-01-28T00:27:58.729Z,-3.50
2023-01-28T00:30:25.984Z,-3.55
2023-01-28T00:32:54.688Z,-3.57
2023-01-28T00:35:22.004Z,-3.57
2023-01-28T00:37:49.186Z,-3.62
2023-01-28T00:40:17.013Z,-3.61
2023-01-28T00:42:44.225Z,-3.66
2023-01-28T00:45:11.819Z,-3.64
2023-01-28T00:47:39.067Z,-3.65
2023-01-28T00:50:07.025Z,-3.76
2023-01-28T00:52:34.339Z,-3.71
2023-01-28T00:55:01.593Z,-3.70
2023-01-28T00:57:28.797Z,-3.78
2023-01-28T00:59:56.072Z,-3.76
2023-01-28T01:02:23.498Z,-3.79
2023-01-28T01:04:50.932Z,-3.84
2023-01-28T01:07:18.248Z,-3.91
2023-01-28T01:09:45.428Z,-3.94
2023-01-28T01:12:12.590Z,-3.98
2023-01-28T01:14:39.802Z,-4.05
2023-01-28T01:17:06.972Z,-4.10
2023-01-28T01:19:34.130Z,-4.07
2023-01-28T01:22:01.366Z,-4.09
2023-01-28T01:24:28.706Z,-4.10
2023-01-28T01:26:55.895Z,-4.11
2023-01-28T01:29:23.487Z,-4.14
2023-01-28T01:31:50.879Z,-4.18
2023-01-28T01:34:18.082Z,-4.19
2023-01-28T01:36:45.234Z,-4.30
2023-01-28T01:39:15.251Z,-4.32
2023-01-28T01:41:42.440Z,-4.44
2023-01-28T01:44:57.025Z,-4.42
2023-01-28T01:48:02.314Z,-4.48
2023-01-28T01:50:46.148Z,-4.51
2023-01-28T01:53:19.407Z,-4.53
2023-01-28T01:55:51.219Z,-4.56
2023-01-28T01:58:24.423Z,-4.56
2023-01-28T02:00:52.122Z,-4.63
2023-01-28T02:03:31.897Z,-4.67
2023-01-28T02:05:59.378Z,-4.69
2023-01-28T02:08:26.639Z,-4.73
2023-01-28T02:11:04.473Z,-4.76
2023-01-28T02:13:42.993Z,-4.78
2023-01-28T02:16:12.384Z,-4.86
2023-01-28T02:18:39.690Z,-4.88
2023-01-28T02:21:55.464Z,-5.04
2023-01-28T02:25:07.293Z,-5.06
2023-01-28T02:28:09.693Z,-5.13
2023-01-28T02:30:53.821Z,-5.27
2023-01-28T02:33:45.185Z,-5.36
2023-01-28T02:36:42.136Z,-5.39
2023-01-28T02:39:18.640Z,-5.40
2023-01-28T02:42:06.520Z,-5.49
2023-01-28T02:44:33.893Z,-5.54
2023-01-28T02:47:01.113Z,-5.53
2023-01-28T02:49:41.300Z,-5.54
2023-01-28T02:52:39.156Z,-5.61
2023-01-28T02:55:54.269Z,-5.65
2023-01-28T02:58:43.044Z,-5.78
2023-01-28T03:01:16.682Z,-5.78
2023-01-28T03:04:04.815Z,-5.86
2023-01-28T03:06:45.896Z,-5.85
2023-01-28T03:09:17.729Z,-5.91
2023-01-28T03:11:52.835Z,-5.95
2023-01-28T03:14:22.404Z,-6.08
2023-01-28T03:16:51.792Z,-6.01
2023-01-28T03:19:21.085Z,-6.03
2023-01-28T03:21:49.523Z,-6.09
2023-01-28T03:24:48.650Z,-6.17
2023-01-28T03:27:34.307Z,-6.18
2023-01-28T03:30:11.451Z,-6.23
2023-01-28T03:32:42.165Z,-6.21
2023-01-28T03:35:16.192Z,-6.26
2023-01-28T03:37:43.799Z,-6.31
2023-01-28T03:40:20.936Z,-6.32
2023-01-28T03:42:48.198Z,-6.37
2023-01-28T03:45:15.851Z,-6.46
2023-01-28T03:47:43.292Z,-6.49
2023-01-28T03:50:11.157Z,-6.48
2023-01-28T03:52:38.403Z,-6.50
2023-01-28T03:55:06.568Z,-6.52
2023-01-28T03:57:33.723Z,-6.59
2023-01-28T04:00:00.915Z,-6.59
2023-01-28T04:02:28.252Z,-6.60
2023-01-28T04:04:55.438Z,-6.62
2023-01-28T04:07:22.663Z,-6.64
2023-01-28T04:09:49.984Z,-6.63
2023-01-28T04:12:17.208Z,-6.66
2023-01-28T04:14:44.362Z,-6.63
2023-01-28T04:17:11.476Z,-6.62
2023-01-28T04:19:38.748Z,-6.70
2023-01-28T04:22:10.797Z,-6.74
2023-01-28T04:24:38.127Z,-6.75
2023-01-28T04:27:05.464Z,-6.86
2023-01-28T04:29:32.776Z,-6.84
2023-01-28T04:31:59.994Z,-6.84
2023-01-28T04:34:27.163Z,-6.84
2023-01-28T04:36:54.304Z,-6.86
2023-01-28T04:39:21.492Z,-6.85
2023-01-28T04:41:48.713Z,-6.90
2023-01-28T04:44:16.000Z,-6.88
2023-01-28T04:46:43.403Z,-6.95
2023-01-28T04:49:10.733Z,-6.94
2023-01-28T04:51:37.991Z,-6.96
2023-01-28T04:54:05.261Z,-6.96
2023-01-28T04:56:32.447Z,-7.05
2023-01-28T04:58:59.724Z,-7.04
2023-01-28T05:01:27.033Z,-7.11
2023-01-28T05:03:54.401Z,-7.11
2023-01-28T05:06:21.652Z,-7.15
2023-01-28T05:08:48.808Z,-7.19
2023-01-28T05:11:16.054Z,-7.19
2023-01-28T05:13:43.226Z,-7.21
2023-01-28T05:16:10.380Z,-7.25
2023-01-28T05:18:37.614Z,-7.27
2023-01-28T05:21:05.212Z,-7.32
2023-01-28T05:23:32.441Z,-7.28
2023-01-28T05:25:59.922Z,-7.33
2023-01-28T05:28:27.140Z,-7.31
2023-01-28T05:30:54.270Z,-7.32
2023-01-28T05:33:21.570Z,-7.35
2023-01-28T05:35:48.791Z,-7.34
2023-01-28T05:38:16.067Z,-7.34
2023-01-28T05:40:43.617Z,-7.36
2023-01-28T05:43:10.786Z,-7.36
2023-01-28T05:45:37.966Z,-7.35
2023-01-28T05:48:06.101Z,-7.30
2023-01-28T05:50:33.609Z,-7.35
2023-01-28T05:53:00.763Z,-7.35
2023-01-28T05:55:27.884Z,-7.39
2023-01-28T05:57:55.088Z,-7.47
2023-01-28T06:00:22.531Z,-7.47
2023-01-28T06:02:53.171Z,-7.50
2023-01-28T06:05:21.044Z,-7.53
2023-01-28T06:07:49.112Z,-7.55
2023-01-28T06:10:17.351Z,-7.64
2023-01-28T06:12:45.348Z,-7.61
2023-01-28T06:15:12.719Z,-7.61
2023-01-28T06:17:40.094Z,-7.63
2023-01-28T06:20:08.359Z,-7.64
2023-01-28T06:22:35.803Z,-7.65
2023-01-28T06:25:03.406Z,-7.66
2023-01-28T06:27:30.846Z,-7.63
2023-01-28T06:29:57.953Z,-7.63
2023-01-28T06:32:25.274Z,-7.68
2023-01-28T06:34:52.362Z,-7.72
2023-01-28T06:37:19.818Z,-7.70
2023-01-28T06:39:47.003Z,-7.71
2023-01-28T06:42:14.171Z,-7.73
2023-01-28T06:44:41.365Z,-7.78
2023-01-28T06:47:08.907Z,-7.79
2023-01-28T06:49:36.222Z,-7.80
2023-01-28T06:52:03.686Z,-7.80
2023-01-28T06:54:31.004Z,-7.87
2023-01-28T06:56:58.801Z,-7.91
2023-01-28T06:59:26.265Z,-7.89
2023-01-28T07:01:53.520Z,-7.88
2023-01-28T07:04:20.675Z,-7.93
2023-01-28T07:06:48.109Z,-7.88
2023-01-28T07:09:15.248Z,-7.88
2023-01-28T07:11:42.433Z,-7.89
2023-01-28T07:14:09.994Z,-7.91
2023-01-28T07:16:37.286Z,-7.92
2023-01-28T07:19:04.504Z,-7.87
2023-01-28T07:21:31.629Z,-7.87
2023-01-28T07:23:59.098Z,-7.87
2023-01-28T07:26:26.424Z,-7.86
2023-01-28T07:28:53.595Z,-7.90
2023-01-28T07:31:20.890Z,-7.89
2023-01-28T07:33:48.341Z,-7.90
2023-01-28T07:36:15.621Z,-7.84
2023-01-28T07:38:42.759Z,-7.79
2023-01-28T07:41:09.877Z,-7.67
2023-01-28T07:43:37.064Z,-7.63
2023-01-28T07:46:04.404Z,-7.56
2023-01-28T07:48:31.597Z,-7.49
2023-01-28T07:51:00.329Z,-7.47
2023-01-28T07:53:27.559Z,-7.46
2023-01-28T07:56:01.030Z,-7.35
2023-01-28T07:58:28.312Z,-7.29
2023-01-28T08:00:58.863Z,-7.19
2023-01-28T08:03:27.667Z,-7.10
2023-01-28T08:05:57.012Z,-7.04
2023-01-28T08:08:26.271Z,-7.03
2023-01-28T08:10:54.141Z,-6.99
2023-01-28T08:13:21.324Z,-6.99
2023-01-28T08:15:48.849Z,-7.10
2023-01-28T08:18:17.010Z,-7.16
2023-01-28T08:20:44.590Z,-7.17
2023-01-28T08:23:17.600Z,-7.17
2023-01-28T08:25:46.399Z,-7.13
2023-01-28T08:28:15.343Z,-7.15
2023-01-28T08:30:42.952Z,-7.04
2023-01-28T08:33:14.223Z,-6.94
2023-01-28T08:35:41.766Z,-6.85
2023-01-28T08:38:11.966Z,-6.75
2023-01-28T08:40:40.690Z,-6.76
2023-01-28T08:43:08.025Z,-6.61
2023-01-28T08:45:35.432Z,-6.46
2023-01-28T08:48:05.785Z,-6.34
2023-01-28T08:50:37.682Z,-6.23
2023-01-28T08:53:18.640Z,-6.05
2023-01-28T08:55:47.495Z,-5.97
2023-01-28T08:58:18.237Z,-5.85
2023-01-28T09:00:46.542Z,-5.83
2023-01-28T09:03:13.823Z,-5.82
2023-01-28T09:05:41.187Z,-5.82
2023-01-28T09:08:15.020Z,-5.77
2023-01-28T09:10:43.194Z,-5.76
2023-01-28T09:13:14.769Z,-5.67
2023-01-28T09:15:43.282Z,-5.65
2023-01-28T09:18:11.035Z,-5.56
2023-01-28T09:20:38.834Z,-5.45
2023-01-28T09:23:07.083Z,-5.37
2023-01-28T09:25:35.150Z,-5.24
2023-01-28T09:28:03.426Z,-5.14
2023-01-28T09:30:31.382Z,-4.98
2023-01-28T09:32:58.644Z,-4.84
2023-01-28T09:35:26.037Z,-4.79
2023-01-28T09:37:58.595Z,-4.66
2023-01-28T09:40:46.204Z,-4.52
2023-01-28T09:43:47.241Z,-4.40
2023-01-28T09:46:16.910Z,-4.26
2023-01-28T09:48:49.602Z,-4.09
2023-01-28T09:51:41.797Z,-3.89
2023-01-28T09:54:21.815Z,-3.69
2023-01-28T09:56:54.929Z,-3.49
2023-01-28T09:59:23.531Z,-3.33
2023-01-28T10:01:58.860Z,-3.18
2023-01-28T10:04:48.867Z,-3.04
2023-01-28T10:07:34.900Z,-2.96
2023-01-28T10:10:08.959Z,-2.88
2023-01-28T10:13:00.364Z,-2.78
2023-01-28T10:16:10.087Z,-2.69
2023-01-28T10:18:50.908Z,-2.63
2023-01-28T10:21:26.562Z,-2.60
2023-01-28T10:23:58.240Z,-2.49
2023-01-28T10:26:35.782Z,-2.44
2023-01-28T10:29:17.382Z,-2.40
2023-01-28T10:32:22.635Z,-2.35
2023-01-28T10:34:52.612Z,-2.32
2023-01-28T10:37:21.136Z,-2.25
2023-01-28T10:39:48.830Z,-2.19
2023-01-28T10:42:38.553Z,-2.07
2023-01-28T10:45:27.002Z,-2.02
2023-01-28T10:48:07.629Z,-1.94
2023-01-28T10:50:35.156Z,-1.84
2023-01-28T10:53:05.989Z,-1.72
2023-01-28T10:55:58.431Z,-1.63
2023-01-28T10:58:30.382Z,-1.55
2023-01-28T11:01:03.367Z,-1.47
2023-01-28T11:03:31.568Z,-1.43
2023-01-28T11:05:59.855Z,-1.40
2023-01-28T11:08:30.277Z,-1.40
2023-01-28T11:10:58.264Z,-1.47
2023-01-28T11:13:30.590Z,-1.50
2023-01-28T11:16:14.880Z,-1.50
2023-01-28T11:18:54.484Z,-1.49
2023-01-28T11:21:31.555Z,-1.48
2023-01-28T11:24:14.398Z,-1.50
2023-01-28T11:26:50.817Z,-1.48
2023-01-28T11:29:39.085Z,-1.45
2023-01-28T11:32:21.098Z,-1.46
2023-01-28T11:34:58.631Z,-1.47
2023-01-28T11:37:32.424Z,-1.47
2023-01-28T11:40:21.397Z,-1.39
2023-01-28T11:42:51.887Z,-1.35
2023-01-28T11:45:53.161Z,-1.23
2023-01-28T11:48:50.922Z,-1.14
2023-01-28T11:51:49.460Z,-0.98
2023-01-28T11:54:54.972Z,-0.80
2023-01-28T11:57:31.703Z,-0.66
2023-01-28T12:01:01.287Z,-0.48
2023-01-28T12:03:48.044Z,-0.31
2023-01-28T12:07:05.679Z,-0.14
2023-01-28T12:09:52.640Z,0.16
2023-01-28T12:12:45.821Z,0.81
2023-01-28T12:15:40.994Z,1.89
2023-01-28T12:18:46.433Z,2.94
2023-01-28T12:21:45.754Z,4.10
2023-01-28T12:24:34.413Z,4.71
2023-01-28T12:27:25.911Z,5.10
2023-01-28T12:30:22.321Z,5.13
2023-01-28T12:33:41.553Z,4.63
2023-01-28T12:36:30.104Z,3.90
2023-01-28T12:40:00.765Z,3.34
2023-01-28T12:42:42.192Z,2.76
2023-01-28T12:45:15.847Z,2.44
2023-01-28T12:47:54.743Z,2.17
2023-01-28T12:51:14.687Z,1.85
2023-01-28T12:54:02.512Z,1.44
2023-01-28T12:56:38.302Z,1.23
2023-01-28T12:59:22.474Z,1.12
2023-01-28T13:02:12.515Z,0.99
2023-01-28T13:04:54.489Z,0.86
2023-01-28T13:07:35.385Z,0.82
2023-01-28T13:10:40.232Z,0.77
2023-01-28T13:13:13.776Z,0.79
2023-01-28T13:15:44.421Z,0.79
2023-01-28T13:18:42.420Z,0.80
2023-01-28T13:21:39.957Z,0.81
2023-01-28T13:24:11.058Z,0.85
2023-01-28T13:26:47.368Z,0.85
2023-01-28T13:29:14.709Z,0.85
2023-01-28T13:31:51.847Z,0.87
2023-01-28T13:34:39.891Z,0.82
2023-01-28T13:37:46.203Z,0.82
2023-01-28T13:40:13.355Z,0.79
2023-01-28T13:42:42.003Z,0.81
2023-01-28T13:45:23.420Z,0.80
2023-01-28T13:48:27.006Z,0.75
2023-01-28T13:51:02.646Z,0.65
2023-01-28T13:54:26.870Z,0.57
2023-01-28T13:58:12.743Z,0.52
2023-01-28T14:01:29.124Z,0.41
2023-01-28T14:04:11.660Z,0.32
2023-01-28T14:07:10.845Z,0.27
2023-01-28T14:10:34.890Z,0.27
2023-01-28T14:13:26.145Z,0.22
2023-01-28T14:15:56.313Z,0.22
2023-01-28T14:18:35.319Z,0.27
2023-01-28T14:21:11.697Z,0.35
2023-01-28T14:23:47.356Z,0.42
2023-01-28T14:27:02.658Z,0.45
2023-01-28T14:30:16.026Z,0.52
2023-01-28T14:32:50.760Z,0.47
2023-01-28T14:35:35.120Z,0.51
2023-01-28T14:38:12.974Z,0.49
2023-01-28T14:40:41.070Z,0.53
2023-01-28T14:43:18.039Z,0.54
2023-01-28T14:46:10.202Z,0.58
2023-01-28T14:48:42.996Z,0.61
2023-01-28T14:51:30.296Z,0.62
2023-01-28T14:54:50.664Z,0.61
2023-01-28T14:57:44.965Z,0.56
2023-01-28T15:00:25.957Z,0.56
2023-01-28T15:02:53.484Z,0.56
2023-01-28T15:05:28.647Z,0.58
2023-01-28T15:07:57.109Z,0.58
2023-01-28T15:10:36.808Z,0.56
2023-01-28T15:13:26.759Z,0.56
2023-01-28T15:15:56.558Z,0.56
2023-01-28T15:18:45.073Z,0.56
2023-01-28T15:21:13.236Z,0.54
2023-01-28T15:23:43.325Z,0.46
2023-01-28T15:26:22.388Z,0.43
2023-01-28T15:28:51.873Z,0.49
2023-01-28T15:31:29.254Z,0.43
2023-01-28T15:34:01.037Z,0.37
2023-01-28T15:36:29.471Z,0.28
2023-01-28T15:38:57.864Z,0.26
2023-01-28T15:41:34.762Z,0.16
2023-01-28T15:44:02.924Z,0.08
2023-01-28T15:46:31.579Z,-0.07
2023-01-28T15:49:04.000Z,-0.19
2023-01-28T15:51:33.623Z,-0.22
2023-01-28T15:54:08.827Z,-0.30
2023-01-28T15:56:37.367Z,-0.39
2023-01-28T15:59:24.043Z,-0.50
2023-01-28T16:01:51.361Z,-0.54
2023-01-28T16:04:32.227Z,-0.51
2023-01-28T16:07:05.232Z,-0.58
2023-01-28T16:09:35.385Z,-0.57
2023-01-28T16:12:14.690Z,-0.65
2023-01-28T16:14:45.753Z,-0.79
2023-01-28T16:17:42.184Z,-0.90
2023-01-28T16:20:26.060Z,-1.01
2023-01-28T16:23:00.502Z,-1.12
2023-01-28T16:25:36.452Z,-1.09
2023-01-28T16:28:20.327Z,-1.14
2023-01-28T16:30:47.950Z,-1.16
2023-01-28T16:33:24.709Z,-1.17
2023-01-28T16:36:06.495Z,-1.25
2023-01-28T16:38:38.468Z,-1.23
2023-01-28T16:41:06.067Z,-1.20
2023-01-28T16:46:09.207Z,-1.29
2023-01-28T16:48:37.008Z,-1.35
2023-01-28T16:51:05.217Z,-1.36
2023-01-28T16:53:34.761Z,-1.37
2023-01-28T16:56:02.472Z,-1.45
2023-01-28T16:58:30.436Z,-1.45
2023-01-28T17:00:57.799Z,-1.48
2023-01-28T17:03:27.411Z,-1.54
2023-01-28T17:05:54.654Z,-1.61
2023-01-28T17:08:21.991Z,-1.63
2023-01-28T17:10:58.280Z,-1.65
2023-01-28T17:13:25.996Z,-1.71
2023-01-28T17:15:53.329Z,-1.75
2023-01-28T17:18:20.607Z,-1.82
2023-01-28T17:20:48.063Z,-1.87
2023-01-28T17:23:17.861Z,-1.90
2023-01-28T17:25:45.155Z,-1.95
2023-01-28T17:28:12.403Z,-1.99
2023-01-28T17:30:42.228Z,-2.04
2023-01-28T17:33:09.793Z,-2.07
2023-01-28T17:35:37.283Z,-2.12
2023-01-28T17:38:05.656Z,-2.17
2023-01-28T17:40:33.176Z,-2.19
2023-01-28T17:43:00.394Z,-2.26
2023-01-28T17:45:31.602Z,-2.32
2023-01-28T17:47:59.286Z,-2.40
2023-01-28T17:50:26.584Z,-2.44
2023-01-28T17:52:58.102Z,-2.47
2023-01-28T17:55:26.061Z,-2.53
2023-01-28T17:57:53.497Z,-2.62
2023-01-28T18:00:21.550Z,-2.69
2023-01-28T18:02:51.721Z,-2.72
2023-01-28T18:05:20.064Z,-2.75
2023-01-28T18:07:48.086Z,-2.82
2023-01-28T18:10:15.480Z,-2.95
2023-01-28T18:12:43.049Z,-3.02
2023-01-28T18:15:11.337Z,-3.06
2023-01-28T18:17:38.671Z,-3.10
2023-01-28T18:20:06.832Z,-3.11
2023-01-28T18:22:37.229Z,-3.14
2023-01-28T18:25:05.557Z,-3.17
2023-01-28T18:27:32.901Z,-3.26
2023-01-28T18:30:00.111Z,-3.30
2023-01-28T18:32:27.388Z,-3.32
2023-01-28T18:34:54.637Z,-3.36
2023-01-28T18:37:21.874Z,-3.42
2023-01-28T18:39:49.141Z,-3.43
2023-01-28T18:42:16.360Z,-3.45
2023-01-28T18:44:43.585Z,-3.52
2023-01-28T18:47:10.866Z,-3.54
2023-01-28T18:49:38.147Z,-3.59
2023-01-28T18:52:05.795Z,-3.67
2023-01-28T18:54:33.252Z,-3.71
2023-01-28T18:57:00.738Z,-3.75
2023-01-28T18:59:28.279Z,-3.78
2023-01-28T19:01:55.518Z,-3.80
2023-01-28T19:04:22.739Z,-3.83
2023-01-28T19:06:50.051Z,-3.86
2023-01-28T19:09:17.921Z,-3.93
2023-01-28T19:11:45.284Z,-3.95
2023-01-28T19:14:14.943Z,-3.96
2023-01-28T19:16:43.557Z,-3.98
2023-01-28T19:19:11.439Z,-3.98
2023-01-28T19:21:38.744Z,-4.11
2023-01-28T19:24:08.349Z,-4.16
2023-01-28T19:26:36.910Z,-4.16
2023-01-28T19:29:08.480Z,-4.13
2023-01-28T19:31:37.050Z,-4.16
2023-01-28T19:34:04.952Z,-4.20
2023-01-28T19:36:34.241Z,-4.25
2023-01-28T19:39:05.566Z,-4.26
2023-01-28T19:41:33.072Z,-4.37
2023-01-28T19:44:00.382Z,-4.44
2023-01-28T19:46:28.373Z,-4.54
2023-01-28T19:48:55.758Z,-4.56
2023-01-28T19:51:24.268Z,-4.56
2023-01-28T19:53:53.779Z,-4.53
2023-01-28T19:56:23.898Z,-4.55
2023-01-28T19:58:53.972Z,-4.57
2023-01-28T20:01:29.921Z,-4.59
2023-01-28T20:04:00.058Z,-4.61
2023-01-28T20:06:30.387Z,-4.62
2023-01-28T20:09:13.858Z,-4.63
2023-01-28T20:11:41.132Z,-4.64
2023-01-28T20:14:08.288Z,-4.69
2023-01-28T20:16:36.058Z,-4.71
2023-01-28T20:19:08.821Z,-4.75
2023-01-28T20:21:36.823Z,-4.76
2023-01-28T20:24:04.597Z,-4.78
2023-01-28T20:26:37.202Z,-4.80
2023-01-28T20:29:14.848Z,-4.78
2023-01-28T20:31:42.999Z,-4.78
2023-01-28T20:34:19.409Z,-4.79
2023-01-28T20:36:47.547Z,-4.85
2023-01-28T20:39:15.057Z,-4.97
2023-01-28T20:41:42.640Z,-4.98
2023-01-28T20:44:10.013Z,-5.00
2023-01-28T20:46:37.528Z,-5.06
2023-01-28T20:49:05.149Z,-5.09
2023-01-28T20:51:35.730Z,-5.09
2023-01-28T20:54:03.996Z,-5.12
2023-01-28T20:56:31.995Z,-5.13
2023-01-28T20:59:02.326Z,-5.16
2023-01-28T21:01:33.304Z,-5.15
2023-01-28T21:04:01.286Z,-5.20
2023-01-28T21:06:30.050Z,-5.23
2023-01-28T21:08:59.345Z,-5.27
2023-01-28T21:11:27.568Z,-5.33
2023-01-28T21:13:55.534Z,-5.36
2023-01-28T21:16:23.634Z,-5.37
2023-01-28T21:18:51.145Z,-5.40
2023-01-28T21:21:21.948Z,-5.48
2023-01-28T21:23:49.761Z,-5.50
2023-01-28T21:26:17.575Z,-5.54
2023-01-28T21:28:45.306Z,-5.61
2023-01-28T21:31:21.612Z,-5.70
2023-01-28T21:33:51.205Z,-5.69
2023-01-28T21:36:19.345Z,-5.70
2023-01-28T21:38:57.987Z,-5.69
2023-01-28T21:41:26.509Z,-5.71
2023-01-28T21:43:55.706Z,-5.71
2023-01-28T21:46:27.300Z,-5.71
2023-01-28T21:49:02.994Z,-5.77
2023-01-28T21:51:31.107Z,-5.68
2023-01-28T21:53:58.608Z,-5.65
2023-01-28T21:56:25.827Z,-5.59
2023-01-28T21:58:52.973Z,-5.60
2023-01-28T22:01:20.236Z,-5.57
2023-01-28T22:03:47.879Z,-5.59
2023-01-28T22:06:15.488Z,-5.60
2023-01-28T22:08:42.750Z,-5.61
2023-01-28T22:11:10.583Z,-5.62
2023-01-28T22:13:37.707Z,-5.67
2023-01-28T22:16:06.215Z,-5.69
2023-01-28T22:18:33.632Z,-5.71
2023-01-28T22:21:07.276Z,-5.73
2023-01-28T22:23:35.584Z,-5.74
2023-01-28T22:26:03.135Z,-5.80
2023-01-28T22:28:30.700Z,-5.88
2023-01-28T22:31:11.974Z,-5.86
2023-01-28T22:33:40.562Z,-5.94
2023-01-28T22:36:16.054Z,-6.03
2023-01-28T22:38:45.309Z,-6.00
2023-01-28T22:41:18.867Z,-5.98
2023-01-28T22:43:47.183Z,-5.99
2023-01-28T22:46:15.460Z,-6.01
2023-01-28T22:48:42.716Z,-6.06
2023-01-28T22:51:15.721Z,-6.03
2023-01-28T22:53:43.717Z,-6.07
2023-01-28T22:56:11.700Z,-6.29
2023-01-28T22:58:39.631Z,-6.32
2023-01-28T23:01:07.767Z,-6.33
2023-01-28T23:03:35.402Z,-6.35
2023-01-28T23:06:05.139Z,-6.38
2023-01-28T23:08:32.967Z,-6.48
2023-01-28T23:11:02.877Z,-6.52
2023-01-28T23:13:30.740Z,-6.43
2023-01-28T23:15:57.993Z,-6.39
2023-01-28T23:18:25.572Z,-6.37
2023-01-28T23:20:53.036Z,-6.34
2023-01-28T23:23:20.216Z,-6.32
2023-01-28T23:25:47.639Z,-6.26
2023-01-28T23:28:15.695Z,-6.20
2023-01-28T23:30:43.524Z,-6.19
2023-01-28T23:33:10.824Z,-6.22
2023-01-28T23:35:38.254Z,-6.23
2023-01-28T23:38:05.612Z,-6.22
2023-01-28T23:40:32.807Z,-6.22
2023-01-28T23:43:00.037Z,-6.27
2023-01-28T23:45:27.244Z,-6.29
2023-01-28T23:47:54.456Z,-6.34
2023-01-28T23:50:21.761Z,-6.36
2023-01-28T23:52:49.401Z,-6.44
2023-01-28T23:55:16.689Z,-6.49
2023-01-28T23:57:44.021Z,-6.57
